Cleveland, Ohio
Current Conditions -  °F | °C
As of 6:51 AM on Saturday 01 Nov 2014 (Local Time) from KCLE Reporting Station
Light Rain Light Rain  
Wind Chill: 31°   Ceiling: 1200
Heat Index: 41°   Visibility: 5mi
Dew Point: 37°   Wind: 22mph
Humidity: 86%   Direction: 10°N
Pressure: 30.09"   Gusts: 31mph
Location:  41.5°N, 81.69°W
Report Text: KCLE 011051Z 01019G27KT 5SM -RA BR OVC012 05/03 A3009 RMK AO2 PK WND 03033/0953 SLP194 P0002 T00500028
Loading
Personal Weather Stations






























Interactive Weather Map
Tropical Storm Tracking
New forecast layout! Learn more

10-Day Weather Forecast

Advertisements
Track Severe Weather on mobile